sensor_id;sensor_type;location;lat;lon;timestamp;P1;durP1;ratioP1;P2;durP2;ratioP2
42110;SDS011;27766;52.174;5.456;2023-06-26T00:01:41;16.70;;;10.25;;
42110;SDS011;27766;52.174;5.456;2023-06-26T00:04:09;19.02;;;9.25;;
42110;SDS011;27766;52.174;5.456;2023-06-26T00:06:41;10.88;;;8.73;;
42110;SDS011;27766;52.174;5.456;2023-06-26T00:09:09;10.13;;;8.55;;
42110;SDS011;27766;52.174;5.456;2023-06-26T00:11:36;13.07;;;9.13;;
42110;SDS011;27766;52.174;5.456;2023-06-26T00:14:04;16.48;;;9.45;;
42110;SDS011;27766;52.174;5.456;2023-06-26T00:16:31;10.70;;;9.05;;
42110;SDS011;27766;52.174;5.456;2023-06-26T00:18:59;11.30;;;9.40;;
42110;SDS011;27766;52.174;5.456;2023-06-26T00:21:26;13.80;;;9.57;;
42110;SDS011;27766;52.174;5.456;2023-06-26T00:23:54;14.00;;;9.68;;
42110;SDS011;27766;52.174;5.456;2023-06-26T00:26:21;10.40;;;8.98;;
42110;SDS011;27766;52.174;5.456;2023-06-26T00:28:48;13.15;;;9.75;;
42110;SDS011;27766;52.174;5.456;2023-06-26T00:31:16;11.00;;;9.45;;
42110;SDS011;27766;52.174;5.456;2023-06-26T00:33:43;11.15;;;8.88;;
42110;SDS011;27766;52.174;5.456;2023-06-26T00:36:10;10.02;;;8.93;;
42110;SDS011;27766;52.174;5.456;2023-06-26T00:38:37;12.38;;;10.02;;
42110;SDS011;27766;52.174;5.456;2023-06-26T00:41:05;11.23;;;9.60;;
42110;SDS011;27766;52.174;5.456;2023-06-26T00:43:39;13.73;;;10.57;;
42110;SDS011;27766;52.174;5.456;2023-06-26T00:46:09;14.50;;;9.45;;
42110;SDS011;27766;52.174;5.456;2023-06-26T00:48:40;13.45;;;10.05;;
42110;SDS011;27766;52.174;5.456;2023-06-26T00:51:11;17.63;;;9.38;;
42110;SDS011;27766;52.174;5.456;2023-06-26T00:53:39;10.23;;;8.75;;
42110;SDS011;27766;52.174;5.456;2023-06-26T00:56:09;11.25;;;9.05;;
42110;SDS011;27766;52.174;5.456;2023-06-26T00:58:37;9.90;;;8.57;;
42110;SDS011;27766;52.174;5.456;2023-06-26T01:01:04;12.07;;;8.27;;
42110;SDS011;27766;52.174;5.456;2023-06-26T01:03:35;11.80;;;8.85;;
42110;SDS011;27766;52.174;5.456;2023-06-26T01:06:06;13.18;;;8.65;;
42110;SDS011;27766;52.174;5.456;2023-06-26T01:08:36;10.70;;;8.82;;
42110;SDS011;27766;52.174;5.456;2023-06-26T01:11:04;12.15;;;8.30;;
42110;SDS011;27766;52.174;5.456;2023-06-26T01:13:32;13.05;;;8.13;;
42110;SDS011;27766;52.174;5.456;2023-06-26T01:16:00;9.80;;;8.02;;
42110;SDS011;27766;52.174;5.456;2023-06-26T01:18:29;10.45;;;8.68;;
42110;SDS011;27766;52.174;5.456;2023-06-26T01:20:58;12.90;;;8.02;;
42110;SDS011;27766;52.174;5.456;2023-06-26T01:26:20;11.75;;;6.32;;
42110;SDS011;27766;52.174;5.456;2023-06-26T01:28:50;8.45;;;7.00;;
42110;SDS011;27766;52.174;5.456;2023-06-26T01:31:19;7.63;;;6.22;;
42110;SDS011;27766;52.174;5.456;2023-06-26T01:33:47;6.80;;;6.03;;
42110;SDS011;27766;52.174;5.456;2023-06-26T01:36:16;6.55;;;5.47;;
42110;SDS011;27766;52.174;5.456;2023-06-26T01:38:44;6.15;;;5.35;;
42110;SDS011;27766;52.174;5.456;2023-06-26T01:41:11;10.52;;;6.10;;
42110;SDS011;27766;52.174;5.456;2023-06-26T01:51:45;9.13;;;5.22;;
42110;SDS011;27766;52.174;5.456;2023-06-26T01:54:18;7.20;;;4.80;;
42110;SDS011;27766;52.174;5.456;2023-06-26T01:56:50;8.05;;;4.40;;
42110;SDS011;27766;52.174;5.456;2023-06-26T01:59:20;5.45;;;3.88;;
42110;SDS011;27766;52.174;5.456;2023-06-26T02:01:49;6.40;;;4.80;;
42110;SDS011;27766;52.174;5.456;2023-06-26T02:04:16;4.93;;;3.63;;
42110;SDS011;27766;52.174;5.456;2023-06-26T02:06:44;5.00;;;4.18;;
42110;SDS011;27766;52.174;5.456;2023-06-26T02:09:11;6.75;;;3.83;;
42110;SDS011;27766;52.174;5.456;2023-06-26T02:11:39;7.38;;;4.35;;
42110;SDS011;27766;52.174;5.456;2023-06-26T02:14:06;5.80;;;3.88;;
42110;SDS011;27766;52.174;5.456;2023-06-26T02:16:36;5.88;;;3.70;;
42110;SDS011;27766;52.174;5.456;2023-06-26T02:19:05;8.05;;;4.38;;
42110;SDS011;27766;52.174;5.456;2023-06-26T02:21:32;9.05;;;4.22;;
42110;SDS011;27766;52.174;5.456;2023-06-26T02:23:59;9.35;;;3.70;;
42110;SDS011;27766;52.174;5.456;2023-06-26T02:26:27;6.20;;;3.47;;
42110;SDS011;27766;52.174;5.456;2023-06-26T02:28:54;6.05;;;3.50;;
42110;SDS011;27766;52.174;5.456;2023-06-26T02:31:22;5.35;;;3.90;;
42110;SDS011;27766;52.174;5.456;2023-06-26T02:33:49;6.95;;;4.25;;
42110;SDS011;27766;52.174;5.456;2023-06-26T02:36:17;7.88;;;3.78;;
42110;SDS011;27766;52.174;5.456;2023-06-26T02:38:44;8.05;;;3.65;;
42110;SDS011;27766;52.174;5.456;2023-06-26T02:41:11;5.50;;;3.65;;
42110;SDS011;27766;52.174;5.456;2023-06-26T02:43:38;5.05;;;4.03;;
42110;SDS011;27766;52.174;5.456;2023-06-26T02:46:06;6.07;;;3.50;;
42110;SDS011;27766;52.174;5.456;2023-06-26T02:48:33;9.15;;;4.30;;
42110;SDS011;27766;52.174;5.456;2023-06-26T02:51:00;5.95;;;3.88;;
42110;SDS011;27766;52.174;5.456;2023-06-26T02:53:28;8.35;;;3.65;;
42110;SDS011;27766;52.174;5.456;2023-06-26T02:55:55;8.05;;;3.97;;
42110;SDS011;27766;52.174;5.456;2023-06-26T02:58:22;7.55;;;3.97;;
42110;SDS011;27766;52.174;5.456;2023-06-26T03:00:49;5.75;;;3.67;;
42110;SDS011;27766;52.174;5.456;2023-06-26T03:03:17;4.30;;;3.30;;
42110;SDS011;27766;52.174;5.456;2023-06-26T03:05:44;14.40;;;4.82;;
42110;SDS011;27766;52.174;5.456;2023-06-26T03:08:12;5.60;;;3.55;;
42110;SDS011;27766;52.174;5.456;2023-06-26T03:10:39;5.32;;;3.80;;
42110;SDS011;27766;52.174;5.456;2023-06-26T03:13:07;9.27;;;4.47;;
42110;SDS011;27766;52.174;5.456;2023-06-26T03:15:34;6.05;;;4.15;;
42110;SDS011;27766;52.174;5.456;2023-06-26T03:18:02;9.05;;;4.60;;
42110;SDS011;27766;52.174;5.456;2023-06-26T03:20:29;10.70;;;3.90;;
42110;SDS011;27766;52.174;5.456;2023-06-26T03:22:56;5.43;;;3.67;;
42110;SDS011;27766;52.174;5.456;2023-06-26T03:25:23;7.75;;;3.72;;
42110;SDS011;27766;52.174;5.456;2023-06-26T03:27:51;10.00;;;4.38;;
42110;SDS011;27766;52.174;5.456;2023-06-26T03:30:18;4.97;;;3.63;;
42110;SDS011;27766;52.174;5.456;2023-06-26T03:32:45;7.97;;;3.67;;
42110;SDS011;27766;52.174;5.456;2023-06-26T03:35:13;9.18;;;4.15;;
42110;SDS011;27766;52.174;5.456;2023-06-26T03:37:40;10.68;;;4.22;;
42110;SDS011;27766;52.174;5.456;2023-06-26T03:40:08;9.57;;;4.47;;
42110;SDS011;27766;52.174;5.456;2023-06-26T03:42:36;10.07;;;4.35;;
42110;SDS011;27766;52.174;5.456;2023-06-26T03:45:03;11.73;;;4.75;;
42110;SDS011;27766;52.174;5.456;2023-06-26T03:47:31;12.57;;;4.65;;
42110;SDS011;27766;52.174;5.456;2023-06-26T03:49:58;8.88;;;4.70;;
42110;SDS011;27766;52.174;5.456;2023-06-26T03:52:26;10.35;;;4.40;;
42110;SDS011;27766;52.174;5.456;2023-06-26T03:54:53;10.88;;;4.75;;
42110;SDS011;27766;52.174;5.456;2023-06-26T03:57:20;5.50;;;4.20;;
42110;SDS011;27766;52.174;5.456;2023-06-26T03:59:48;7.00;;;3.95;;
42110;SDS011;27766;52.174;5.456;2023-06-26T04:02:15;8.45;;;4.22;;
42110;SDS011;27766;52.174;5.456;2023-06-26T04:04:49;5.70;;;4.47;;
42110;SDS011;27766;52.174;5.456;2023-06-26T04:07:17;7.35;;;4.30;;
42110;SDS011;27766;52.174;5.456;2023-06-26T04:09:45;10.73;;;4.75;;
42110;SDS011;27766;52.174;5.456;2023-06-26T04:12:13;14.30;;;4.70;;
42110;SDS011;27766;52.174;5.456;2023-06-26T04:14:40;9.48;;;3.95;;
42110;SDS011;27766;52.174;5.456;2023-06-26T04:17:09;10.82;;;5.05;;
42110;SDS011;27766;52.174;5.456;2023-06-26T04:19:37;10.93;;;4.45;;
42110;SDS011;27766;52.174;5.456;2023-06-26T04:22:04;11.02;;;4.20;;
42110;SDS011;27766;52.174;5.456;2023-06-26T04:24:32;9.00;;;4.75;;
42110;SDS011;27766;52.174;5.456;2023-06-26T04:26:59;10.43;;;4.40;;
42110;SDS011;27766;52.174;5.456;2023-06-26T04:29:26;11.75;;;4.90;;
42110;SDS011;27766;52.174;5.456;2023-06-26T04:31:54;7.72;;;4.60;;
42110;SDS011;27766;52.174;5.456;2023-06-26T04:34:25;5.13;;;4.07;;
42110;SDS011;27766;52.174;5.456;2023-06-26T04:36:53;9.57;;;4.40;;
42110;SDS011;27766;52.174;5.456;2023-06-26T04:39:21;7.95;;;4.60;;
42110;SDS011;27766;52.174;5.456;2023-06-26T04:41:49;10.43;;;4.55;;
42110;SDS011;27766;52.174;5.456;2023-06-26T04:44:16;10.88;;;4.78;;
42110;SDS011;27766;52.174;5.456;2023-06-26T04:46:47;9.68;;;4.30;;
42110;SDS011;27766;52.174;5.456;2023-06-26T04:49:14;8.88;;;4.25;;
42110;SDS011;27766;52.174;5.456;2023-06-26T04:51:44;13.00;;;5.00;;
42110;SDS011;27766;52.174;5.456;2023-06-26T04:54:12;13.25;;;4.28;;
42110;SDS011;27766;52.174;5.456;2023-06-26T04:56:39;11.25;;;4.82;;
42110;SDS011;27766;52.174;5.456;2023-06-26T04:59:07;8.15;;;4.15;;
42110;SDS011;27766;52.174;5.456;2023-06-26T05:01:40;8.23;;;3.88;;
42110;SDS011;27766;52.174;5.456;2023-06-26T05:04:07;12.55;;;4.30;;
42110;SDS011;27766;52.174;5.456;2023-06-26T05:06:35;10.95;;;4.90;;
42110;SDS011;27766;52.174;5.456;2023-06-26T05:09:02;9.50;;;3.75;;
42110;SDS011;27766;52.174;5.456;2023-06-26T05:11:30;7.25;;;4.15;;
42110;SDS011;27766;52.174;5.456;2023-06-26T05:13:57;14.77;;;4.55;;
42110;SDS011;27766;52.174;5.456;2023-06-26T05:16:24;8.65;;;3.53;;
42110;SDS011;27766;52.174;5.456;2023-06-26T05:18:52;11.48;;;3.67;;
42110;SDS011;27766;52.174;5.456;2023-06-26T05:21:21;9.73;;;4.18;;
42110;SDS011;27766;52.174;5.456;2023-06-26T05:23:49;8.05;;;3.90;;
42110;SDS011;27766;52.174;5.456;2023-06-26T05:26:22;19.08;;;14.00;;
42110;SDS011;27766;52.174;5.456;2023-06-26T05:28:50;8.50;;;3.60;;
42110;SDS011;27766;52.174;5.456;2023-06-26T05:31:18;8.07;;;6.25;;
42110;SDS011;27766;52.174;5.456;2023-06-26T05:33:45;5.07;;;3.58;;
42110;SDS011;27766;52.174;5.456;2023-06-26T05:36:17;4.85;;;2.83;;
42110;SDS011;27766;52.174;5.456;2023-06-26T05:38:49;11.32;;;3.20;;
42110;SDS011;27766;52.174;5.456;2023-06-26T05:41:17;3.75;;;2.40;;
42110;SDS011;27766;52.174;5.456;2023-06-26T05:43:45;8.63;;;2.78;;
42110;SDS011;27766;52.174;5.456;2023-06-26T05:46:12;4.47;;;2.40;;
42110;SDS011;27766;52.174;5.456;2023-06-26T05:48:40;3.08;;;2.47;;
42110;SDS011;27766;52.174;5.456;2023-06-26T05:51:07;6.88;;;2.88;;
42110;SDS011;27766;52.174;5.456;2023-06-26T05:53:35;4.18;;;2.50;;
42110;SDS011;27766;52.174;5.456;2023-06-26T05:56:03;5.20;;;2.28;;
42110;SDS011;27766;52.174;5.456;2023-06-26T05:58:30;6.78;;;2.70;;
42110;SDS011;27766;52.174;5.456;2023-06-26T06:00:58;5.20;;;2.28;;
42110;SDS011;27766;52.174;5.456;2023-06-26T06:03:25;2.75;;;2.28;;
42110;SDS011;27766;52.174;5.456;2023-06-26T06:05:53;4.47;;;2.63;;
42110;SDS011;27766;52.174;5.456;2023-06-26T06:08:20;4.15;;;2.63;;
42110;SDS011;27766;52.174;5.456;2023-06-26T06:10:47;3.88;;;2.10;;
42110;SDS011;27766;52.174;5.456;2023-06-26T06:13:15;3.10;;;1.95;;
42110;SDS011;27766;52.174;5.456;2023-06-26T06:15:42;5.50;;;1.98;;
42110;SDS011;27766;52.174;5.456;2023-06-26T06:18:10;2.67;;;1.52;;
42110;SDS011;27766;52.174;5.456;2023-06-26T06:20:37;2.33;;;1.70;;
42110;SDS011;27766;52.174;5.456;2023-06-26T06:23:05;5.32;;;2.05;;
42110;SDS011;27766;52.174;5.456;2023-06-26T06:25:33;3.38;;;1.75;;
42110;SDS011;27766;52.174;5.456;2023-06-26T06:28:00;2.67;;;1.80;;
42110;SDS011;27766;52.174;5.456;2023-06-26T06:30:27;3.08;;;1.92;;
42110;SDS011;27766;52.174;5.456;2023-06-26T06:33:01;2.38;;;1.60;;
42110;SDS011;27766;52.174;5.456;2023-06-26T06:35:28;2.13;;;1.63;;
42110;SDS011;27766;52.174;5.456;2023-06-26T06:37:56;7.45;;;2.13;;
42110;SDS011;27766;52.174;5.456;2023-06-26T06:40:23;6.03;;;1.95;;
42110;SDS011;27766;52.174;5.456;2023-06-26T06:42:52;4.47;;;1.83;;
42110;SDS011;27766;52.174;5.456;2023-06-26T06:45:19;5.20;;;2.13;;
42110;SDS011;27766;52.174;5.456;2023-06-26T06:47:47;4.45;;;1.80;;
42110;SDS011;27766;52.174;5.456;2023-06-26T06:50:14;2.20;;;1.65;;
42110;SDS011;27766;52.174;5.456;2023-06-26T06:52:43;5.78;;;1.58;;
42110;SDS011;27766;52.174;5.456;2023-06-26T06:55:10;2.22;;;1.55;;
42110;SDS011;27766;52.174;5.456;2023-06-26T06:57:38;4.82;;;1.85;;
42110;SDS011;27766;52.174;5.456;2023-06-26T07:00:10;2.30;;;1.58;;
42110;SDS011;27766;52.174;5.456;2023-06-26T07:02:42;3.28;;;1.63;;
42110;SDS011;27766;52.174;5.456;2023-06-26T07:05:11;3.00;;;2.17;;
42110;SDS011;27766;52.174;5.456;2023-06-26T07:07:39;5.20;;;2.08;;
42110;SDS011;27766;52.174;5.456;2023-06-26T07:10:11;3.63;;;1.98;;
42110;SDS011;27766;52.174;5.456;2023-06-26T07:12:39;6.03;;;2.07;;
42110;SDS011;27766;52.174;5.456;2023-06-26T07:15:07;3.60;;;2.22;;
42110;SDS011;27766;52.174;5.456;2023-06-26T07:17:34;4.90;;;2.50;;
42110;SDS011;27766;52.174;5.456;2023-06-26T07:20:02;4.15;;;1.92;;
42110;SDS011;27766;52.174;5.456;2023-06-26T07:22:35;3.85;;;2.03;;
42110;SDS011;27766;52.174;5.456;2023-06-26T07:25:03;3.40;;;1.80;;
42110;SDS011;27766;52.174;5.456;2023-06-26T07:27:31;6.15;;;2.15;;
42110;SDS011;27766;52.174;5.456;2023-06-26T07:30:00;6.93;;;2.45;;
42110;SDS011;27766;52.174;5.456;2023-06-26T07:32:28;3.75;;;2.30;;
42110;SDS011;27766;52.174;5.456;2023-06-26T07:34:55;2.80;;;2.17;;
42110;SDS011;27766;52.174;5.456;2023-06-26T07:37:23;4.00;;;2.25;;
42110;SDS011;27766;52.174;5.456;2023-06-26T07:39:50;4.25;;;2.60;;
42110;SDS011;27766;52.174;5.456;2023-06-26T07:42:17;4.63;;;2.45;;
42110;SDS011;27766;52.174;5.456;2023-06-26T07:44:45;3.00;;;2.00;;
42110;SDS011;27766;52.174;5.456;2023-06-26T07:47:14;6.50;;;2.67;;
42110;SDS011;27766;52.174;5.456;2023-06-26T07:49:42;4.80;;;2.75;;
42110;SDS011;27766;52.174;5.456;2023-06-26T07:52:09;3.63;;;2.30;;
42110;SDS011;27766;52.174;5.456;2023-06-26T07:54:37;3.65;;;2.35;;
42110;SDS011;27766;52.174;5.456;2023-06-26T07:57:05;4.35;;;2.45;;
42110;SDS011;27766;52.174;5.456;2023-06-26T07:59:36;8.70;;;1.98;;
42110;SDS011;27766;52.174;5.456;2023-06-26T08:02:03;5.45;;;2.05;;
42110;SDS011;27766;52.174;5.456;2023-06-26T08:04:30;5.53;;;2.38;;
42110;SDS011;27766;52.174;5.456;2023-06-26T08:06:59;8.13;;;2.50;;
42110;SDS011;27766;52.174;5.456;2023-06-26T08:09:28;4.57;;;2.22;;
42110;SDS011;27766;52.174;5.456;2023-06-26T08:11:57;5.88;;;2.42;;
42110;SDS011;27766;52.174;5.456;2023-06-26T08:14:24;2.15;;;1.67;;
42110;SDS011;27766;52.174;5.456;2023-06-26T08:16:52;3.47;;;2.53;;
42110;SDS011;27766;52.174;5.456;2023-06-26T08:19:19;3.72;;;2.42;;
42110;SDS011;27766;52.174;5.456;2023-06-26T08:21:46;4.22;;;2.40;;
42110;SDS011;27766;52.174;5.456;2023-06-26T08:24:14;3.92;;;2.22;;
42110;SDS011;27766;52.174;5.456;2023-06-26T08:26:46;3.88;;;1.75;;
42110;SDS011;27766;52.174;5.456;2023-06-26T08:29:17;4.07;;;2.53;;
42110;SDS011;27766;52.174;5.456;2023-06-26T08:31:44;5.20;;;2.47;;
42110;SDS011;27766;52.174;5.456;2023-06-26T08:34:11;4.47;;;2.08;;
42110;SDS011;27766;52.174;5.456;2023-06-26T08:36:39;2.97;;;1.60;;
42110;SDS011;27766;52.174;5.456;2023-06-26T08:39:06;4.88;;;1.63;;
42110;SDS011;27766;52.174;5.456;2023-06-26T08:41:35;2.83;;;1.77;;
42110;SDS011;27766;52.174;5.456;2023-06-26T08:44:03;7.93;;;1.50;;
42110;SDS011;27766;52.174;5.456;2023-06-26T08:46:31;4.15;;;1.95;;
42110;SDS011;27766;52.174;5.456;2023-06-26T08:49:21;3.10;;;1.90;;
42110;SDS011;27766;52.174;5.456;2023-06-26T08:52:15;7.88;;;1.63;;
42110;SDS011;27766;52.174;5.456;2023-06-26T08:54:52;3.80;;;1.50;;
42110;SDS011;27766;52.174;5.456;2023-06-26T08:57:23;5.53;;;1.58;;
42110;SDS011;27766;52.174;5.456;2023-06-26T08:59:52;7.05;;;1.90;;
42110;SDS011;27766;52.174;5.456;2023-06-26T09:02:19;2.05;;;1.08;;
42110;SDS011;27766;52.174;5.456;2023-06-26T09:04:48;1.90;;;1.23;;
42110;SDS011;27766;52.174;5.456;2023-06-26T09:07:18;5.63;;;1.40;;
42110;SDS011;27766;52.174;5.456;2023-06-26T09:09:45;3.17;;;1.20;;
42110;SDS011;27766;52.174;5.456;2023-06-26T09:12:16;3.35;;;1.08;;
42110;SDS011;27766;52.174;5.456;2023-06-26T09:14:47;3.88;;;1.30;;
42110;SDS011;27766;52.174;5.456;2023-06-26T09:17:15;2.00;;;1.25;;
42110;SDS011;27766;52.174;5.456;2023-06-26T09:19:45;1.35;;;0.93;;
42110;SDS011;27766;52.174;5.456;2023-06-26T09:22:13;3.60;;;1.20;;
42110;SDS011;27766;52.174;5.456;2023-06-26T09:24:41;2.33;;;1.20;;
42110;SDS011;27766;52.174;5.456;2023-06-26T09:27:10;2.35;;;1.08;;
42110;SDS011;27766;52.174;5.456;2023-06-26T09:29:38;4.47;;;1.20;;
42110;SDS011;27766;52.174;5.456;2023-06-26T09:32:07;6.00;;;1.20;;
42110;SDS011;27766;52.174;5.456;2023-06-26T09:34:36;1.80;;;1.08;;
42110;SDS011;27766;52.174;5.456;2023-06-26T09:37:08;3.15;;;1.20;;
42110;SDS011;27766;52.174;5.456;2023-06-26T09:39:35;5.72;;;1.58;;
42110;SDS011;27766;52.174;5.456;2023-06-26T09:42:02;5.10;;;1.75;;
42110;SDS011;27766;52.174;5.456;2023-06-26T09:44:33;4.47;;;1.17;;
42110;SDS011;27766;52.174;5.456;2023-06-26T09:47:01;7.40;;;1.40;;
42110;SDS011;27766;52.174;5.456;2023-06-26T09:49:31;2.45;;;1.30;;
42110;SDS011;27766;52.174;5.456;2023-06-26T09:51:59;2.38;;;1.33;;
42110;SDS011;27766;52.174;5.456;2023-06-26T09:54:27;2.83;;;1.17;;
42110;SDS011;27766;52.174;5.456;2023-06-26T09:57:06;1.80;;;0.98;;
42110;SDS011;27766;52.174;5.456;2023-06-26T09:59:35;2.72;;;1.00;;
42110;SDS011;27766;52.174;5.456;2023-06-26T10:02:03;2.08;;;1.05;;
42110;SDS011;27766;52.174;5.456;2023-06-26T10:04:30;3.00;;;1.10;;
42110;SDS011;27766;52.174;5.456;2023-06-26T10:06:58;2.20;;;1.02;;
42110;SDS011;27766;52.174;5.456;2023-06-26T10:09:36;2.10;;;1.20;;
42110;SDS011;27766;52.174;5.456;2023-06-26T10:12:11;2.40;;;1.13;;
42110;SDS011;27766;52.174;5.456;2023-06-26T10:14:45;3.83;;;1.15;;
42110;SDS011;27766;52.174;5.456;2023-06-26T10:17:16;1.98;;;1.23;;
42110;SDS011;27766;52.174;5.456;2023-06-26T10:19:48;4.53;;;0.85;;
42110;SDS011;27766;52.174;5.456;2023-06-26T10:22:18;1.33;;;0.80;;
42110;SDS011;27766;52.174;5.456;2023-06-26T10:24:48;2.97;;;0.93;;
42110;SDS011;27766;52.174;5.456;2023-06-26T10:27:18;5.57;;;1.13;;
42110;SDS011;27766;52.174;5.456;2023-06-26T10:29:48;1.00;;;0.75;;
42110;SDS011;27766;52.174;5.456;2023-06-26T10:32:21;1.90;;;0.82;;
42110;SDS011;27766;52.174;5.456;2023-06-26T10:34:51;2.15;;;0.90;;
42110;SDS011;27766;52.174;5.456;2023-06-26T10:37:19;3.25;;;1.20;;
42110;SDS011;27766;52.174;5.456;2023-06-26T10:42:17;0.98;;;0.70;;
42110;SDS011;27766;52.174;5.456;2023-06-26T10:44:46;2.42;;;0.80;;
42110;SDS011;27766;52.174;5.456;2023-06-26T10:47:30;2.78;;;1.00;;
42110;SDS011;27766;52.174;5.456;2023-06-26T10:56:03;1.05;;;0.70;;
42110;SDS011;27766;52.174;5.456;2023-06-26T11:03:38;2.97;;;0.70;;
42110;SDS011;27766;52.174;5.456;2023-06-26T11:06:24;1.67;;;0.82;;
42110;SDS011;27766;52.174;5.456;2023-06-26T11:08:55;1.58;;;0.57;;
42110;SDS011;27766;52.174;5.456;2023-06-26T11:14:26;1.75;;;0.95;;
42110;SDS011;27766;52.174;5.456;2023-06-26T11:16:57;4.45;;;1.27;;
42110;SDS011;27766;52.174;5.456;2023-06-26T11:19:25;4.90;;;0.82;;
42110;SDS011;27766;52.174;5.456;2023-06-26T11:21:57;3.50;;;1.27;;
42110;SDS011;27766;52.174;5.456;2023-06-26T11:24:34;1.45;;;0.88;;
42110;SDS011;27766;52.174;5.456;2023-06-26T11:27:03;1.35;;;0.88;;
42110;SDS011;27766;52.174;5.456;2023-06-26T11:29:32;4.50;;;0.77;;
42110;SDS011;27766;52.174;5.456;2023-06-26T11:32:01;3.45;;;0.98;;
42110;SDS011;27766;52.174;5.456;2023-06-26T11:34:31;3.63;;;1.20;;
42110;SDS011;27766;52.174;5.456;2023-06-26T11:36:59;2.50;;;0.80;;
42110;SDS011;27766;52.174;5.456;2023-06-26T11:39:29;4.10;;;1.00;;
42110;SDS011;27766;52.174;5.456;2023-06-26T11:41:57;4.85;;;0.57;;
42110;SDS011;27766;52.174;5.456;2023-06-26T11:44:29;1.35;;;0.70;;
42110;SDS011;27766;52.174;5.456;2023-06-26T11:46:57;3.53;;;0.75;;
42110;SDS011;27766;52.174;5.456;2023-06-26T11:49:25;0.88;;;0.73;;
42110;SDS011;27766;52.174;5.456;2023-06-26T11:51:53;3.30;;;1.05;;
42110;SDS011;27766;52.174;5.456;2023-06-26T11:54:27;0.65;;;0.60;;
42110;SDS011;27766;52.174;5.456;2023-06-26T11:56:55;1.92;;;1.02;;
42110;SDS011;27766;52.174;5.456;2023-06-26T11:59:23;0.93;;;0.63;;
42110;SDS011;27766;52.174;5.456;2023-06-26T12:01:52;3.10;;;0.82;;
42110;SDS011;27766;52.174;5.456;2023-06-26T12:04:19;2.88;;;0.45;;
42110;SDS011;27766;52.174;5.456;2023-06-26T12:06:49;0.55;;;0.50;;
42110;SDS011;27766;52.174;5.456;2023-06-26T12:09:18;1.35;;;0.70;;
42110;SDS011;27766;52.174;5.456;2023-06-26T12:11:46;1.67;;;0.30;;
42110;SDS011;27766;52.174;5.456;2023-06-26T12:14:19;0.65;;;0.40;;
42110;SDS011;27766;52.174;5.456;2023-06-26T12:16:47;1.10;;;0.68;;
42110;SDS011;27766;52.174;5.456;2023-06-26T12:19:15;1.50;;;0.70;;
42110;SDS011;27766;52.174;5.456;2023-06-26T12:21:46;0.98;;;0.50;;
42110;SDS011;27766;52.174;5.456;2023-06-26T12:24:20;3.70;;;0.68;;
42110;SDS011;27766;52.174;5.456;2023-06-26T12:26:49;0.52;;;0.38;;
42110;SDS011;27766;52.174;5.456;2023-06-26T12:29:20;1.23;;;0.55;;
42110;SDS011;27766;52.174;5.456;2023-06-26T12:31:50;2.88;;;0.57;;
42110;SDS011;27766;52.174;5.456;2023-06-26T12:34:26;1.67;;;0.60;;
42110;SDS011;27766;52.174;5.456;2023-06-26T12:36:59;0.88;;;0.50;;
42110;SDS011;27766;52.174;5.456;2023-06-26T12:39:44;1.88;;;0.47;;
42110;SDS011;27766;52.174;5.456;2023-06-26T12:42:33;1.38;;;0.45;;
42110;SDS011;27766;52.174;5.456;2023-06-26T12:45:09;1.08;;;0.60;;
42110;SDS011;27766;52.174;5.456;2023-06-26T12:48:06;0.40;;;0.35;;
42110;SDS011;27766;52.174;5.456;2023-06-26T12:50:43;1.15;;;0.50;;
42110;SDS011;27766;52.174;5.456;2023-06-26T12:53:11;1.77;;;0.70;;
42110;SDS011;27766;52.174;5.456;2023-06-26T12:55:40;0.63;;;0.32;;
42110;SDS011;27766;52.174;5.456;2023-06-26T12:58:07;2.22;;;0.70;;
42110;SDS011;27766;52.174;5.456;2023-06-26T13:00:40;1.70;;;0.63;;
42110;SDS011;27766;52.174;5.456;2023-06-26T13:03:08;5.40;;;0.82;;
42110;SDS011;27766;52.174;5.456;2023-06-26T13:05:37;2.50;;;0.90;;
42110;SDS011;27766;52.174;5.456;2023-06-26T13:08:04;4.05;;;0.80;;
42110;SDS011;27766;52.174;5.456;2023-06-26T13:10:32;4.55;;;0.77;;
42110;SDS011;27766;52.174;5.456;2023-06-26T13:13:00;1.75;;;0.60;;
42110;SDS011;27766;52.174;5.456;2023-06-26T13:15:27;1.30;;;0.55;;
42110;SDS011;27766;52.174;5.456;2023-06-26T13:17:55;4.03;;;0.80;;
42110;SDS011;27766;52.174;5.456;2023-06-26T13:20:22;1.27;;;0.60;;
42110;SDS011;27766;52.174;5.456;2023-06-26T13:22:49;2.88;;;0.85;;
42110;SDS011;27766;52.174;5.456;2023-06-26T13:25:17;1.05;;;0.40;;
42110;SDS011;27766;52.174;5.456;2023-06-26T13:27:44;0.65;;;0.43;;
42110;SDS011;27766;52.174;5.456;2023-06-26T13:30:12;1.73;;;0.57;;
42110;SDS011;27766;52.174;5.456;2023-06-26T13:32:42;1.90;;;0.70;;
42110;SDS011;27766;52.174;5.456;2023-06-26T13:35:10;1.08;;;0.73;;
42110;SDS011;27766;52.174;5.456;2023-06-26T13:37:37;1.10;;;0.52;;
42110;SDS011;27766;52.174;5.456;2023-06-26T13:40:05;0.60;;;0.38;;
42110;SDS011;27766;52.174;5.456;2023-06-26T13:42:36;1.00;;;0.68;;
42110;SDS011;27766;52.174;5.456;2023-06-26T13:45:04;1.75;;;0.70;;
42110;SDS011;27766;52.174;5.456;2023-06-26T13:47:31;1.85;;;0.93;;
42110;SDS011;27766;52.174;5.456;2023-06-26T13:50:01;1.60;;;0.60;;
42110;SDS011;27766;52.174;5.456;2023-06-26T13:52:28;3.22;;;0.60;;
42110;SDS011;27766;52.174;5.456;2023-06-26T13:54:55;2.67;;;0.90;;
42110;SDS011;27766;52.174;5.456;2023-06-26T13:57:23;0.43;;;0.40;;
42110;SDS011;27766;52.174;5.456;2023-06-26T13:59:50;2.80;;;0.70;;
42110;SDS011;27766;52.174;5.456;2023-06-26T14:02:17;2.92;;;0.93;;
42110;SDS011;27766;52.174;5.456;2023-06-26T14:04:45;0.63;;;0.60;;
42110;SDS011;27766;52.174;5.456;2023-06-26T14:07:12;3.67;;;0.82;;
42110;SDS011;27766;52.174;5.456;2023-06-26T14:09:39;1.00;;;0.50;;
42110;SDS011;27766;52.174;5.456;2023-06-26T14:12:07;1.27;;;0.75;;
42110;SDS011;27766;52.174;5.456;2023-06-26T14:14:35;1.33;;;0.70;;
42110;SDS011;27766;52.174;5.456;2023-06-26T14:17:02;1.23;;;0.57;;
42110;SDS011;27766;52.174;5.456;2023-06-26T14:19:32;0.77;;;0.60;;
42110;SDS011;27766;52.174;5.456;2023-06-26T14:21:59;3.30;;;0.80;;
42110;SDS011;27766;52.174;5.456;2023-06-26T14:24:26;1.20;;;0.45;;
42110;SDS011;27766;52.174;5.456;2023-06-26T14:26:54;2.88;;;0.65;;
42110;SDS011;27766;52.174;5.456;2023-06-26T14:29:21;0.80;;;0.50;;
42110;SDS011;27766;52.174;5.456;2023-06-26T14:31:48;2.22;;;0.77;;
42110;SDS011;27766;52.174;5.456;2023-06-26T14:34:17;0.85;;;0.50;;
42110;SDS011;27766;52.174;5.456;2023-06-26T14:36:45;1.50;;;0.55;;
42110;SDS011;27766;52.174;5.456;2023-06-26T14:39:12;3.00;;;0.90;;
42110;SDS011;27766;52.174;5.456;2023-06-26T14:41:40;1.30;;;0.70;;
42110;SDS011;27766;52.174;5.456;2023-06-26T14:44:08;0.30;;;0.30;;
42110;SDS011;27766;52.174;5.456;2023-06-26T14:46:37;4.80;;;0.98;;
42110;SDS011;27766;52.174;5.456;2023-06-26T14:49:05;1.33;;;0.68;;
42110;SDS011;27766;52.174;5.456;2023-06-26T14:51:34;2.85;;;0.43;;
42110;SDS011;27766;52.174;5.456;2023-06-26T14:54:02;1.38;;;0.70;;
42110;SDS011;27766;52.174;5.456;2023-06-26T14:56:30;7.30;;;0.82;;
42110;SDS011;27766;52.174;5.456;2023-06-26T14:58:57;0.90;;;0.40;;
42110;SDS011;27766;52.174;5.456;2023-06-26T15:01:24;1.60;;;0.60;;
42110;SDS011;27766;52.174;5.456;2023-06-26T15:03:52;1.00;;;0.63;;
42110;SDS011;27766;52.174;5.456;2023-06-26T15:06:19;1.27;;;0.50;;
42110;SDS011;27766;52.174;5.456;2023-06-26T15:08:49;1.38;;;0.82;;
42110;SDS011;27766;52.174;5.456;2023-06-26T15:11:17;3.72;;;0.60;;
42110;SDS011;27766;52.174;5.456;2023-06-26T15:13:45;1.80;;;1.27;;
42110;SDS011;27766;52.174;5.456;2023-06-26T15:16:14;3.63;;;0.70;;
42110;SDS011;27766;52.174;5.456;2023-06-26T15:18:42;1.58;;;0.50;;
42110;SDS011;27766;52.174;5.456;2023-06-26T15:21:10;3.03;;;0.90;;
42110;SDS011;27766;52.174;5.456;2023-06-26T15:23:37;2.75;;;0.80;;